sensor_id;sensor_type;location;lat;lon;timestamp;P1;durP1;ratioP1;P2;durP2;ratioP2
26080;SDS011;13991;51.174;4.438;2022-11-12T02:31:10;22.17;;;10.47;;
26080;SDS011;13991;51.174;4.438;2022-11-12T02:33:36;23.03;;;12.07;;
26080;SDS011;13991;51.174;4.438;2022-11-12T02:36:01;22.93;;;11.30;;
26080;SDS011;13991;51.174;4.438;2022-11-12T02:38:27;23.17;;;11.83;;
26080;SDS011;13991;51.174;4.438;2022-11-12T02:40:53;27.47;;;12.67;;
26080;SDS011;13991;51.174;4.438;2022-11-12T02:43:18;26.07;;;12.00;;
26080;SDS011;13991;51.174;4.438;2022-11-12T02:45:44;25.73;;;11.87;;
26080;SDS011;13991;51.174;4.438;2022-11-12T02:48:10;25.73;;;12.53;;
26080;SDS011;13991;51.174;4.438;2022-11-12T02:50:39;27.87;;;11.80;;
26080;SDS011;13991;51.174;4.438;2022-11-12T02:53:04;25.23;;;12.27;;
26080;SDS011;13991;51.174;4.438;2022-11-12T02:55:30;26.40;;;12.40;;
26080;SDS011;13991;51.174;4.438;2022-11-12T02:57:56;25.40;;;12.70;;
26080;SDS011;13991;51.174;4.438;2022-11-12T03:00:23;29.17;;;11.67;;
26080;SDS011;13991;51.174;4.438;2022-11-12T03:02:48;26.20;;;12.60;;
26080;SDS011;13991;51.174;4.438;2022-11-12T03:05:23;25.50;;;11.00;;
26080;SDS011;13991;51.174;4.438;2022-11-12T03:07:59;25.00;;;12.07;;
26080;SDS011;13991;51.174;4.438;2022-11-12T03:10:27;29.17;;;11.70;;
26080;SDS011;13991;51.174;4.438;2022-11-12T03:12:55;29.13;;;12.53;;
26080;SDS011;13991;51.174;4.438;2022-11-12T03:15:21;25.90;;;12.47;;
26080;SDS011;13991;51.174;4.438;2022-11-12T03:17:47;24.57;;;11.87;;
26080;SDS011;13991;51.174;4.438;2022-11-12T03:20:13;26.20;;;11.43;;
26080;SDS011;13991;51.174;4.438;2022-11-12T03:22:39;29.97;;;12.00;;
26080;SDS011;13991;51.174;4.438;2022-11-12T03:25:05;26.87;;;11.73;;
26080;SDS011;13991;51.174;4.438;2022-11-12T03:27:31;31.20;;;12.37;;
26080;SDS011;13991;51.174;4.438;2022-11-12T03:29:57;25.90;;;11.00;;
26080;SDS011;13991;51.174;4.438;2022-11-12T03:32:23;22.87;;;11.73;;
26080;SDS011;13991;51.174;4.438;2022-11-12T03:34:49;23.90;;;12.07;;
26080;SDS011;13991;51.174;4.438;2022-11-12T03:37:14;24.17;;;11.43;;
26080;SDS011;13991;51.174;4.438;2022-11-12T03:39:40;21.73;;;10.97;;
26080;SDS011;13991;51.174;4.438;2022-11-12T03:42:06;20.57;;;10.43;;
26080;SDS011;13991;51.174;4.438;2022-11-12T03:44:32;24.27;;;12.33;;
26080;SDS011;13991;51.174;4.438;2022-11-12T03:46:58;26.23;;;11.20;;
26080;SDS011;13991;51.174;4.438;2022-11-12T03:49:23;19.73;;;10.87;;
26080;SDS011;13991;51.174;4.438;2022-11-12T03:51:49;25.50;;;11.80;;
26080;SDS011;13991;51.174;4.438;2022-11-12T03:54:14;26.40;;;10.80;;
26080;SDS011;13991;51.174;4.438;2022-11-12T03:56:40;24.37;;;11.93;;
26080;SDS011;13991;51.174;4.438;2022-11-12T03:59:06;24.53;;;11.40;;
26080;SDS011;13991;51.174;4.438;2022-11-12T04:01:31;20.53;;;11.07;;
26080;SDS011;13991;51.174;4.438;2022-11-12T04:03:57;27.73;;;12.13;;
26080;SDS011;13991;51.174;4.438;2022-11-12T04:06:23;20.80;;;10.37;;
26080;SDS011;13991;51.174;4.438;2022-11-12T04:09:07;22.63;;;10.73;;
26080;SDS011;13991;51.174;4.438;2022-11-12T04:11:32;23.00;;;10.33;;
26080;SDS011;13991;51.174;4.438;2022-11-12T04:13:58;20.83;;;11.47;;
26080;SDS011;13991;51.174;4.438;2022-11-12T04:16:24;19.60;;;9.67;;
26080;SDS011;13991;51.174;4.438;2022-11-12T04:19:09;29.60;;;10.30;;
26080;SDS011;13991;51.174;4.438;2022-11-12T04:22:02;20.63;;;9.70;;
26080;SDS011;13991;51.174;4.438;2022-11-12T04:24:34;19.97;;;10.00;;
26080;SDS011;13991;51.174;4.438;2022-11-12T04:27:21;26.37;;;10.80;;
26080;SDS011;13991;51.174;4.438;2022-11-12T04:29:48;22.07;;;10.00;;
26080;SDS011;13991;51.174;4.438;2022-11-12T04:32:34;19.57;;;9.80;;
26080;SDS011;13991;51.174;4.438;2022-11-12T04:35:02;25.00;;;10.20;;
26080;SDS011;13991;51.174;4.438;2022-11-12T04:37:29;31.77;;;10.53;;
26080;SDS011;13991;51.174;4.438;2022-11-12T04:40:20;18.60;;;9.63;;
26080;SDS011;13991;51.174;4.438;2022-11-12T04:43:08;23.83;;;10.17;;
26080;SDS011;13991;51.174;4.438;2022-11-12T04:45:56;21.23;;;10.07;;
26080;SDS011;13991;51.174;4.438;2022-11-12T04:48:23;22.57;;;10.40;;
26080;SDS011;13991;51.174;4.438;2022-11-12T04:51:23;27.67;;;11.10;;
26080;SDS011;13991;51.174;4.438;2022-11-12T04:54:00;25.73;;;10.07;;
26080;SDS011;13991;51.174;4.438;2022-11-12T04:56:26;25.07;;;10.30;;
26080;SDS011;13991;51.174;4.438;2022-11-12T04:58:51;22.13;;;11.00;;
26080;SDS011;13991;51.174;4.438;2022-11-12T05:01:17;21.00;;;10.50;;
26080;SDS011;13991;51.174;4.438;2022-11-12T05:03:42;19.60;;;9.77;;
26080;SDS011;13991;51.174;4.438;2022-11-12T05:06:08;17.10;;;9.20;;
26080;SDS011;13991;51.174;4.438;2022-11-12T05:08:54;19.30;;;9.77;;
26080;SDS011;13991;51.174;4.438;2022-11-12T05:11:22;15.33;;;8.53;;
26080;SDS011;13991;51.174;4.438;2022-11-12T05:13:51;23.53;;;10.13;;
26080;SDS011;13991;51.174;4.438;2022-11-12T05:16:16;18.57;;;9.40;;
26080;SDS011;13991;51.174;4.438;2022-11-12T05:18:42;19.10;;;9.73;;
26080;SDS011;13991;51.174;4.438;2022-11-12T05:21:07;22.40;;;10.33;;
26080;SDS011;13991;51.174;4.438;2022-11-12T05:23:51;23.03;;;9.60;;
26080;SDS011;13991;51.174;4.438;2022-11-12T05:26:17;17.83;;;9.33;;
26080;SDS011;13991;51.174;4.438;2022-11-12T05:28:42;23.60;;;9.37;;
26080;SDS011;13991;51.174;4.438;2022-11-12T05:31:08;16.27;;;9.53;;
26080;SDS011;13991;51.174;4.438;2022-11-12T05:33:34;21.03;;;10.50;;
26080;SDS011;13991;51.174;4.438;2022-11-12T05:35:59;30.17;;;10.37;;
26080;SDS011;13991;51.174;4.438;2022-11-12T05:38:26;21.30;;;9.97;;
26080;SDS011;13991;51.174;4.438;2022-11-12T05:40:51;16.93;;;9.40;;
26080;SDS011;13991;51.174;4.438;2022-11-12T05:43:17;19.50;;;9.57;;
26080;SDS011;13991;51.174;4.438;2022-11-12T05:45:42;16.33;;;8.40;;
26080;SDS011;13991;51.174;4.438;2022-11-12T05:48:08;19.17;;;8.40;;
26080;SDS011;13991;51.174;4.438;2022-11-12T05:50:37;19.33;;;8.90;;
26080;SDS011;13991;51.174;4.438;2022-11-12T05:53:02;20.47;;;8.90;;
26080;SDS011;13991;51.174;4.438;2022-11-12T05:55:28;21.73;;;9.40;;
26080;SDS011;13991;51.174;4.438;2022-11-12T05:57:53;18.20;;;9.30;;
26080;SDS011;13991;51.174;4.438;2022-11-12T06:00:22;18.70;;;9.27;;
26080;SDS011;13991;51.174;4.438;2022-11-12T06:02:47;21.10;;;9.40;;
26080;SDS011;13991;51.174;4.438;2022-11-12T06:05:13;22.60;;;9.77;;
26080;SDS011;13991;51.174;4.438;2022-11-12T06:07:39;14.97;;;8.77;;
26080;SDS011;13991;51.174;4.438;2022-11-12T06:10:04;19.93;;;9.87;;
26080;SDS011;13991;51.174;4.438;2022-11-12T06:12:30;22.80;;;10.20;;
26080;SDS011;13991;51.174;4.438;2022-11-12T06:14:56;25.50;;;10.10;;
26080;SDS011;13991;51.174;4.438;2022-11-12T06:17:22;19.30;;;9.87;;
26080;SDS011;13991;51.174;4.438;2022-11-12T06:19:47;23.80;;;9.13;;
26080;SDS011;13991;51.174;4.438;2022-11-12T06:22:13;17.57;;;9.23;;
26080;SDS011;13991;51.174;4.438;2022-11-12T06:24:39;20.33;;;9.20;;
26080;SDS011;13991;51.174;4.438;2022-11-12T06:27:04;24.93;;;9.83;;
26080;SDS011;13991;51.174;4.438;2022-11-12T06:29:30;22.60;;;9.47;;
26080;SDS011;13991;51.174;4.438;2022-11-12T06:31:55;19.10;;;9.90;;
26080;SDS011;13991;51.174;4.438;2022-11-12T06:34:21;19.40;;;9.53;;
26080;SDS011;13991;51.174;4.438;2022-11-12T06:36:47;21.67;;;9.60;;
26080;SDS011;13991;51.174;4.438;2022-11-12T06:39:13;22.30;;;10.20;;
26080;SDS011;13991;51.174;4.438;2022-11-12T06:41:38;16.27;;;9.10;;
26080;SDS011;13991;51.174;4.438;2022-11-12T06:44:04;17.73;;;10.50;;
26080;SDS011;13991;51.174;4.438;2022-11-12T06:46:33;19.57;;;9.30;;
26080;SDS011;13991;51.174;4.438;2022-11-12T06:48:58;18.80;;;9.70;;
26080;SDS011;13991;51.174;4.438;2022-11-12T06:51:24;21.60;;;9.83;;
26080;SDS011;13991;51.174;4.438;2022-11-12T06:53:50;40.50;;;10.60;;
26080;SDS011;13991;51.174;4.438;2022-11-12T06:56:16;18.07;;;9.60;;
26080;SDS011;13991;51.174;4.438;2022-11-12T06:58:41;35.13;;;11.90;;
26080;SDS011;13991;51.174;4.438;2022-11-12T07:01:11;23.40;;;11.33;;
26080;SDS011;13991;51.174;4.438;2022-11-12T07:03:39;30.97;;;11.73;;
26080;SDS011;13991;51.174;4.438;2022-11-12T07:06:11;26.07;;;12.17;;
26080;SDS011;13991;51.174;4.438;2022-11-12T07:08:38;41.80;;;12.80;;
26080;SDS011;13991;51.174;4.438;2022-11-12T07:11:05;27.13;;;12.77;;
26080;SDS011;13991;51.174;4.438;2022-11-12T07:13:32;25.43;;;11.40;;
26080;SDS011;13991;51.174;4.438;2022-11-12T07:15:59;24.57;;;11.03;;
26080;SDS011;13991;51.174;4.438;2022-11-12T07:18:25;29.20;;;10.17;;
26080;SDS011;13991;51.174;4.438;2022-11-12T07:20:55;23.00;;;9.90;;
26080;SDS011;13991;51.174;4.438;2022-11-12T07:23:24;26.87;;;10.30;;
26080;SDS011;13991;51.174;4.438;2022-11-12T07:25:57;25.63;;;10.90;;
26080;SDS011;13991;51.174;4.438;2022-11-12T07:28:24;26.30;;;10.60;;
26080;SDS011;13991;51.174;4.438;2022-11-12T07:30:57;23.17;;;9.70;;
26080;SDS011;13991;51.174;4.438;2022-11-12T07:33:25;22.37;;;10.07;;
26080;SDS011;13991;51.174;4.438;2022-11-12T07:35:58;25.23;;;11.00;;
26080;SDS011;13991;51.174;4.438;2022-11-12T07:38:25;30.97;;;10.50;;
26080;SDS011;13991;51.174;4.438;2022-11-12T07:40:57;21.10;;;10.23;;
26080;SDS011;13991;51.174;4.438;2022-11-12T07:43:24;21.03;;;10.27;;
26080;SDS011;13991;51.174;4.438;2022-11-12T07:45:50;22.23;;;10.20;;
26080;SDS011;13991;51.174;4.438;2022-11-12T07:48:15;21.57;;;10.17;;
26080;SDS011;13991;51.174;4.438;2022-11-12T07:50:41;18.73;;;9.67;;
26080;SDS011;13991;51.174;4.438;2022-11-12T07:53:06;24.90;;;9.60;;
26080;SDS011;13991;51.174;4.438;2022-11-12T07:55:32;26.33;;;10.50;;
26080;SDS011;13991;51.174;4.438;2022-11-12T07:57:58;31.40;;;10.10;;
26080;SDS011;13991;51.174;4.438;2022-11-12T08:00:26;20.43;;;9.23;;
26080;SDS011;13991;51.174;4.438;2022-11-12T08:02:52;24.77;;;10.17;;
26080;SDS011;13991;51.174;4.438;2022-11-12T08:05:18;24.47;;;9.00;;
26080;SDS011;13991;51.174;4.438;2022-11-12T08:07:43;25.07;;;10.87;;
26080;SDS011;13991;51.174;4.438;2022-11-12T08:10:09;26.63;;;9.10;;
26080;SDS011;13991;51.174;4.438;2022-11-12T08:12:35;23.50;;;9.67;;
26080;SDS011;13991;51.174;4.438;2022-11-12T08:15:00;22.57;;;8.80;;
26080;SDS011;13991;51.174;4.438;2022-11-12T08:17:26;18.87;;;9.50;;
26080;SDS011;13991;51.174;4.438;2022-11-12T08:19:52;19.93;;;10.47;;
26080;SDS011;13991;51.174;4.438;2022-11-12T08:22:19;24.90;;;9.77;;
26080;SDS011;13991;51.174;4.438;2022-11-12T08:24:45;34.97;;;9.60;;
26080;SDS011;13991;51.174;4.438;2022-11-12T08:27:11;23.90;;;10.07;;
26080;SDS011;13991;51.174;4.438;2022-11-12T08:29:36;20.77;;;9.53;;
26080;SDS011;13991;51.174;4.438;2022-11-12T08:32:02;21.33;;;10.20;;
26080;SDS011;13991;51.174;4.438;2022-11-12T08:34:28;27.70;;;9.53;;
26080;SDS011;13991;51.174;4.438;2022-11-12T08:36:53;24.23;;;10.90;;
26080;SDS011;13991;51.174;4.438;2022-11-12T08:39:19;23.73;;;10.60;;
26080;SDS011;13991;51.174;4.438;2022-11-12T08:41:44;23.03;;;9.80;;
26080;SDS011;13991;51.174;4.438;2022-11-12T08:44:10;23.70;;;9.80;;
26080;SDS011;13991;51.174;4.438;2022-11-12T08:46:36;23.70;;;9.90;;
26080;SDS011;13991;51.174;4.438;2022-11-12T08:52:24;19.00;;;9.57;;
26080;SDS011;13991;51.174;4.438;2022-11-12T08:54:53;20.17;;;8.77;;
26080;SDS011;13991;51.174;4.438;2022-11-12T08:57:22;19.57;;;8.40;;
26080;SDS011;13991;51.174;4.438;2022-11-12T09:03:20;21.10;;;9.07;;
26080;SDS011;13991;51.174;4.438;2022-11-12T09:05:48;21.13;;;9.53;;
26080;SDS011;13991;51.174;4.438;2022-11-12T09:11:36;29.80;;;9.73;;
26080;SDS011;13991;51.174;4.438;2022-11-12T09:14:02;17.47;;;9.57;;
26080;SDS011;13991;51.174;4.438;2022-11-12T09:16:28;20.37;;;8.93;;
26080;SDS011;13991;51.174;4.438;2022-11-12T09:18:54;22.17;;;9.93;;
26080;SDS011;13991;51.174;4.438;2022-11-12T09:21:19;17.43;;;9.37;;
26080;SDS011;13991;51.174;4.438;2022-11-12T09:23:48;19.03;;;9.97;;
26080;SDS011;13991;51.174;4.438;2022-11-12T09:26:17;20.97;;;10.13;;
26080;SDS011;13991;51.174;4.438;2022-11-12T09:28:42;15.33;;;8.93;;
26080;SDS011;13991;51.174;4.438;2022-11-12T09:31:08;27.97;;;9.50;;
26080;SDS011;13991;51.174;4.438;2022-11-12T09:33:34;21.13;;;9.37;;
26080;SDS011;13991;51.174;4.438;2022-11-12T09:36:03;17.23;;;9.17;;
26080;SDS011;13991;51.174;4.438;2022-11-12T09:38:29;20.17;;;10.57;;
26080;SDS011;13991;51.174;4.438;2022-11-12T09:46:06;15.80;;;8.47;;
26080;SDS011;13991;51.174;4.438;2022-11-12T09:48:39;18.03;;;8.30;;
26080;SDS011;13991;51.174;4.438;2022-11-12T09:51:14;20.20;;;8.80;;
26080;SDS011;13991;51.174;4.438;2022-11-12T09:53:54;23.03;;;9.80;;
26080;SDS011;13991;51.174;4.438;2022-11-12T09:56:24;27.30;;;10.10;;
26080;SDS011;13991;51.174;4.438;2022-11-12T09:58:52;18.37;;;8.87;;
26080;SDS011;13991;51.174;4.438;2022-11-12T10:01:21;17.43;;;8.90;;
26080;SDS011;13991;51.174;4.438;2022-11-12T10:04:21;17.90;;;8.93;;
26080;SDS011;13991;51.174;4.438;2022-11-12T10:07:29;19.70;;;9.03;;
26080;SDS011;13991;51.174;4.438;2022-11-12T10:15:44;21.03;;;8.37;;
26080;SDS011;13991;51.174;4.438;2022-11-12T10:23:58;13.53;;;7.83;;
26080;SDS011;13991;51.174;4.438;2022-11-12T10:26:26;13.70;;;7.93;;
26080;SDS011;13991;51.174;4.438;2022-11-12T10:28:56;13.47;;;8.17;;
26080;SDS011;13991;51.174;4.438;2022-11-12T10:31:30;16.57;;;8.50;;
26080;SDS011;13991;51.174;4.438;2022-11-12T10:34:04;15.80;;;8.37;;
26080;SDS011;13991;51.174;4.438;2022-11-12T10:36:35;19.27;;;9.07;;
26080;SDS011;13991;51.174;4.438;2022-11-12T10:39:04;20.20;;;8.53;;
26080;SDS011;13991;51.174;4.438;2022-11-12T10:41:33;16.87;;;8.63;;
26080;SDS011;13991;51.174;4.438;2022-11-12T10:43:59;21.70;;;8.37;;
26080;SDS011;13991;51.174;4.438;2022-11-12T10:46:28;17.73;;;8.90;;
26080;SDS011;13991;51.174;4.438;2022-11-12T10:49:00;17.03;;;8.10;;
26080;SDS011;13991;51.174;4.438;2022-11-12T10:51:35;14.40;;;7.40;;
26080;SDS011;13991;51.174;4.438;2022-11-12T10:54:47;14.50;;;8.03;;
26080;SDS011;13991;51.174;4.438;2022-11-12T10:57:18;14.47;;;7.67;;
26080;SDS011;13991;51.174;4.438;2022-11-12T11:00:03;16.67;;;7.70;;
26080;SDS011;13991;51.174;4.438;2022-11-12T11:02:49;14.90;;;6.87;;
26080;SDS011;13991;51.174;4.438;2022-11-12T11:07:59;13.03;;;6.67;;
26080;SDS011;13991;51.174;4.438;2022-11-12T11:16:03;17.73;;;6.40;;
26080;SDS011;13991;51.174;4.438;2022-11-12T11:18:32;14.37;;;6.60;;
26080;SDS011;13991;51.174;4.438;2022-11-12T11:23:35;10.60;;;5.87;;
26080;SDS011;13991;51.174;4.438;2022-11-12T11:31:58;9.83;;;5.77;;
26080;SDS011;13991;51.174;4.438;2022-11-12T11:37:06;21.67;;;7.17;;
26080;SDS011;13991;51.174;4.438;2022-11-12T11:39:54;15.03;;;7.00;;
26080;SDS011;13991;51.174;4.438;2022-11-12T11:42:39;11.10;;;6.00;;
26080;SDS011;13991;51.174;4.438;2022-11-12T11:45:17;9.80;;;5.73;;
26080;SDS011;13991;51.174;4.438;2022-11-12T11:47:53;11.00;;;5.43;;
26080;SDS011;13991;51.174;4.438;2022-11-12T11:50:34;9.87;;;5.63;;
26080;SDS011;13991;51.174;4.438;2022-11-12T11:56:22;8.90;;;5.30;;
26080;SDS011;13991;51.174;4.438;2022-11-12T12:01:37;11.60;;;5.27;;
26080;SDS011;13991;51.174;4.438;2022-11-12T12:21:49;18.83;;;6.57;;
26080;SDS011;13991;51.174;4.438;2022-11-12T12:27:13;11.83;;;5.53;;
26080;SDS011;13991;51.174;4.438;2022-11-12T12:30:02;11.43;;;5.73;;
26080;SDS011;13991;51.174;4.438;2022-11-12T12:32:44;9.90;;;5.83;;
26080;SDS011;13991;51.174;4.438;2022-11-12T12:38:13;17.90;;;5.50;;
26080;SDS011;13991;51.174;4.438;2022-11-12T12:40:58;13.83;;;6.37;;
26080;SDS011;13991;51.174;4.438;2022-11-12T12:43:34;10.17;;;5.70;;
26080;SDS011;13991;51.174;4.438;2022-11-12T12:46:01;11.67;;;6.17;;
26080;SDS011;13991;51.174;4.438;2022-11-12T12:48:33;9.50;;;5.80;;
26080;SDS011;13991;51.174;4.438;2022-11-12T12:51:02;13.40;;;6.50;;
26080;SDS011;13991;51.174;4.438;2022-11-12T12:55:55;12.37;;;5.70;;
26080;SDS011;13991;51.174;4.438;2022-11-12T12:58:44;11.73;;;5.80;;
26080;SDS011;13991;51.174;4.438;2022-11-12T13:08:58;16.80;;;5.80;;
26080;SDS011;13991;51.174;4.438;2022-11-12T13:43:27;10.60;;;5.07;;
26080;SDS011;13991;51.174;4.438;2022-11-12T13:46:02;9.93;;;5.23;;
26080;SDS011;13991;51.174;4.438;2022-11-12T13:48:51;19.37;;;5.97;;
26080;SDS011;13991;51.174;4.438;2022-11-12T13:59:12;15.03;;;4.93;;
26080;SDS011;13991;51.174;4.438;2022-11-12T14:01:39;14.93;;;5.30;;
26080;SDS011;13991;51.174;4.438;2022-11-12T14:04:06;15.30;;;5.17;;
26080;SDS011;13991;51.174;4.438;2022-11-12T14:06:42;11.50;;;5.20;;
26080;SDS011;13991;51.174;4.438;2022-11-12T14:09:32;13.57;;;5.50;;
26080;SDS011;13991;51.174;4.438;2022-11-12T14:17:27;17.23;;;5.03;;
26080;SDS011;13991;51.174;4.438;2022-11-12T14:20:21;12.40;;;4.70;;
26080;SDS011;13991;51.174;4.438;2022-11-12T14:22:49;8.23;;;4.43;;
26080;SDS011;13991;51.174;4.438;2022-11-12T14:25:24;12.53;;;5.10;;
26080;SDS011;13991;51.174;4.438;2022-11-12T14:27:52;16.43;;;4.77;;
26080;SDS011;13991;51.174;4.438;2022-11-12T14:30:20;10.53;;;4.57;;
26080;SDS011;13991;51.174;4.438;2022-11-12T14:32:49;14.43;;;4.60;;
26080;SDS011;13991;51.174;4.438;2022-11-12T14:38:14;14.83;;;4.90;;
26080;SDS011;13991;51.174;4.438;2022-11-12T14:40:49;12.33;;;5.30;;
26080;SDS011;13991;51.174;4.438;2022-11-12T14:43:19;11.83;;;4.87;;
26080;SDS011;13991;51.174;4.438;2022-11-12T14:45:57;10.10;;;4.70;;
26080;SDS011;13991;51.174;4.438;2022-11-12T14:48:25;9.43;;;4.57;;
26080;SDS011;13991;51.174;4.438;2022-11-12T14:51:02;10.73;;;4.83;;
26080;SDS011;13991;51.174;4.438;2022-11-12T14:53:37;13.43;;;4.97;;
26080;SDS011;13991;51.174;4.438;2022-11-12T14:56:46;9.97;;;4.77;;
26080;SDS011;13991;51.174;4.438;2022-11-12T14:59:13;9.37;;;4.90;;
26080;SDS011;13991;51.174;4.438;2022-11-12T15:01:40;9.10;;;5.03;;
26080;SDS011;13991;51.174;4.438;2022-11-12T15:04:36;12.57;;;5.57;;
26080;SDS011;13991;51.174;4.438;2022-11-12T15:07:05;12.50;;;4.80;;
26080;SDS011;13991;51.174;4.438;2022-11-12T15:09:39;13.27;;;5.27;;
26080;SDS011;13991;51.174;4.438;2022-11-12T15:12:06;10.70;;;4.90;;
26080;SDS011;13991;51.174;4.438;2022-11-12T15:14:43;9.47;;;4.67;;
26080;SDS011;13991;51.174;4.438;2022-11-12T15:20:02;15.67;;;5.53;;
26080;SDS011;13991;51.174;4.438;2022-11-12T15:22:29;12.83;;;4.80;;
26080;SDS011;13991;51.174;4.438;2022-11-12T15:25:08;19.07;;;5.67;;
26080;SDS011;13991;51.174;4.438;2022-11-12T15:27:45;11.80;;;5.33;;
26080;SDS011;13991;51.174;4.438;2022-11-12T15:30:16;11.67;;;4.73;;
26080;SDS011;13991;51.174;4.438;2022-11-12T15:32:45;16.37;;;4.93;;
26080;SDS011;13991;51.174;4.438;2022-11-12T15:35:30;13.30;;;4.80;;
26080;SDS011;13991;51.174;4.438;2022-11-12T15:37:58;8.43;;;4.47;;
26080;SDS011;13991;51.174;4.438;2022-11-12T15:40:31;15.23;;;4.97;;
26080;SDS011;13991;51.174;4.438;2022-11-12T15:43:14;10.83;;;4.70;;
26080;SDS011;13991;51.174;4.438;2022-11-12T15:45:42;10.30;;;4.53;;
26080;SDS011;13991;51.174;4.438;2022-11-12T15:48:13;10.83;;;4.50;;
26080;SDS011;13991;51.174;4.438;2022-11-12T15:50:38;11.00;;;4.37;;
26080;SDS011;13991;51.174;4.438;2022-11-12T15:53:04;11.73;;;5.50;;
26080;SDS011;13991;51.174;4.438;2022-11-12T15:55:31;17.57;;;5.50;;
26080;SDS011;13991;51.174;4.438;2022-11-12T15:57:57;14.87;;;5.23;;
26080;SDS011;13991;51.174;4.438;2022-11-12T16:00:33;19.23;;;6.17;;
26080;SDS011;13991;51.174;4.438;2022-11-12T16:03:05;12.50;;;5.47;;
26080;SDS011;13991;51.174;4.438;2022-11-12T16:05:40;25.93;;;8.70;;
26080;SDS011;13991;51.174;4.438;2022-11-12T16:08:07;16.97;;;7.77;;
26080;SDS011;13991;51.174;4.438;2022-11-12T16:10:33;22.10;;;8.27;;
26080;SDS011;13991;51.174;4.438;2022-11-12T16:13:00;28.83;;;9.00;;
26080;SDS011;13991;51.174;4.438;2022-11-12T16:15:27;23.40;;;8.93;;
26080;SDS011;13991;51.174;4.438;2022-11-12T16:17:53;41.10;;;10.63;;
26080;SDS011;13991;51.174;4.438;2022-11-12T16:20:28;31.07;;;11.60;;
26080;SDS011;13991;51.174;4.438;2022-11-12T16:22:58;35.30;;;11.23;;
26080;SDS011;13991;51.174;4.438;2022-11-12T16:25:28;29.63;;;10.60;;
26080;SDS011;13991;51.174;4.438;2022-11-12T16:27:56;27.63;;;10.53;;
26080;SDS011;13991;51.174;4.438;2022-11-12T16:30:23;24.93;;;9.50;;
26080;SDS011;13991;51.174;4.438;2022-11-12T16:32:50;20.73;;;8.57;;
26080;SDS011;13991;51.174;4.438;2022-11-12T16:35:16;28.23;;;9.33;;
26080;SDS011;13991;51.174;4.438;2022-11-12T16:37:43;28.50;;;9.70;;
26080;SDS011;13991;51.174;4.438;2022-11-12T16:40:20;33.47;;;9.93;;
26080;SDS011;13991;51.174;4.438;2022-11-12T16:42:50;24.77;;;9.97;;
26080;SDS011;13991;51.174;4.438;2022-11-12T16:45:24;29.57;;;10.10;;
26080;SDS011;13991;51.174;4.438;2022-11-12T16:47:56;25.37;;;8.30;;
26080;SDS011;13991;51.174;4.438;2022-11-12T16:50:24;32.57;;;9.37;;
26080;SDS011;13991;51.174;4.438;2022-11-12T16:52:51;22.33;;;9.43;;
26080;SDS011;13991;51.174;4.438;2022-11-12T16:55:17;34.80;;;9.40;;
26080;SDS011;13991;51.174;4.438;2022-11-12T16:57:43;31.37;;;9.70;;
26080;SDS011;13991;51.174;4.438;2022-11-12T17:00:10;25.50;;;9.70;;
26080;SDS011;13991;51.174;4.438;2022-11-12T17:02:40;20.83;;;8.47;;
26080;SDS011;13991;51.174;4.438;2022-11-12T17:05:14;26.53;;;10.47;;
26080;SDS011;13991;51.174;4.438;2022-11-12T17:07:43;31.23;;;10.37;;
26080;SDS011;13991;51.174;4.438;2022-11-12T17:10:10;22.67;;;8.87;;
26080;SDS011;13991;51.174;4.438;2022-11-12T17:12:35;22.50;;;10.43;;
26080;SDS011;13991;51.174;4.438;2022-11-12T17:15:01;21.83;;;9.93;;
26080;SDS011;13991;51.174;4.438;2022-11-12T17:17:27;30.37;;;11.10;;
26080;SDS011;13991;51.174;4.438;2022-11-12T17:19:53;27.40;;;11.27;;
26080;SDS011;13991;51.174;4.438;2022-11-12T17:22:18;27.23;;;11.20;;
26080;SDS011;13991;51.174;4.438;2022-11-12T17:24:44;27.43;;;12.00;;
26080;SDS011;13991;51.174;4.438;2022-11-12T17:27:10;22.77;;;10.77;;
26080;SDS011;13991;51.174;4.438;2022-11-12T17:29:36;34.07;;;14.77;;
26080;SDS011;13991;51.174;4.438;2022-11-12T17:32:02;46.67;;;18.00;;
26080;SDS011;13991;51.174;4.438;2022-11-12T17:34:28;31.37;;;15.03;;
26080;SDS011;13991;51.174;4.438;2022-11-12T17:36:54;44.30;;;17.60;;
26080;SDS011;13991;51.174;4.438;2022-11-12T17:39:20;43.63;;;18.40;;
26080;SDS011;13991;51.174;4.438;2022-11-12T17:41:45;51.43;;;19.67;;
26080;SDS011;13991;51.174;4.438;2022-11-12T17:44:15;42.88;;;19.30;;
26080;SDS011;13991;51.174;4.438;2022-11-12T17:46:43;53.93;;;19.70;;
26080;SDS011;13991;51.174;4.438;2022-11-12T17:49:09;41.80;;;17.77;;
26080;SDS011;13991;51.174;4.438;2022-11-12T17:51:35;43.53;;;15.87;;
26080;SDS011;13991;51.174;4.438;2022-11-12T17:54:01;31.67;;;16.13;;
26080;SDS011;13991;51.174;4.438;2022-11-12T17:56:26;37.93;;;15.80;;
26080;SDS011;13991;51.174;4.438;2022-11-12T17:59:01;30.67;;;16.37;;
26080;SDS011;13991;51.174;4.438;2022-11-12T18:01:46;58.20;;;21.67;;
26080;SDS011;13991;51.174;4.438;2022-11-12T18:04:27;57.03;;;25.60;;
26080;SDS011;13991;51.174;4.438;2022-11-12T18:06:53;53.97;;;22.83;;
26080;SDS011;13991;51.174;4.438;2022-11-12T18:09:19;37.57;;;19.60;;
26080;SDS011;13991;51.174;4.438;2022-11-12T18:11:49;38.83;;;16.63;;
26080;SDS011;13991;51.174;4.438;2022-11-12T18:14:20;56.13;;;20.83;;
26080;SDS011;13991;51.174;4.438;2022-11-12T18:16:47;45.60;;;19.57;;
26080;SDS011;13991;51.174;4.438;2022-11-12T18:19:13;43.37;;;17.53;;
26080;SDS011;13991;51.174;4.438;2022-11-12T18:21:40;43.43;;;16.43;;
26080;SDS011;13991;51.174;4.438;2022-11-12T18:24:06;47.03;;;16.87;;
26080;SDS011;13991;51.174;4.438;2022-11-12T18:26:39;35.53;;;15.73;;
26080;SDS011;13991;51.174;4.438;2022-11-12T18:29:05;37.50;;;16.07;;
26080;SDS011;13991;51.174;4.438;2022-11-12T18:31:31;42.07;;;15.60;;
26080;SDS011;13991;51.174;4.438;2022-11-12T18:33:57;40.43;;;17.37;;
26080;SDS011;13991;51.174;4.438;2022-11-12T18:36:23;41.33;;;17.30;;
26080;SDS011;13991;51.174;4.438;2022-11-12T18:38:50;47.13;;;19.60;;
26080;SDS011;13991;51.174;4.438;2022-11-12T18:41:23;44.17;;;20.03;;
26080;SDS011;13991;51.174;4.438;2022-11-12T18:43:54;51.00;;;20.37;;
26080;SDS011;13991;51.174;4.438;2022-11-12T18:46:20;41.03;;;19.67;;
26080;SDS011;13991;51.174;4.438;2022-11-12T18:48:46;50.83;;;20.73;;
26080;SDS011;13991;51.174;4.438;2022-11-12T18:51:13;42.27;;;19.57;;
26080;SDS011;13991;51.174;4.438;2022-11-12T18:53:40;42.23;;;18.57;;
26080;SDS011;13991;51.174;4.438;2022-11-12T18:56:10;38.83;;;19.33;;
26080;SDS011;13991;51.174;4.438;2022-11-12T18:58:37;46.27;;;20.80;;
26080;SDS011;13991;51.174;4.438;2022-11-12T19:01:07;44.40;;;21.17;;
26080;SDS011;13991;51.174;4.438;2022-11-12T19:03:36;47.77;;;21.53;;
26080;SDS011;13991;51.174;4.438;2022-11-12T19:06:03;44.53;;;21.87;;
26080;SDS011;13991;51.174;4.438;2022-11-12T19:08:29;54.00;;;22.80;;
26080;SDS011;13991;51.174;4.438;2022-11-12T19:10:59;47.97;;;21.70;;
26080;SDS011;13991;51.174;4.438;2022-11-12T19:13:29;47.60;;;21.60;;
26080;SDS011;13991;51.174;4.438;2022-11-12T19:16:01;60.50;;;23.90;;
26080;SDS011;13991;51.174;4.438;2022-11-12T19:18:28;46.87;;;20.80;;
